Time;durP1;ratioP1;P1;durP2;ratioP2;P2;SDS_P1;SDS_P2;PMS_P1;PMS_P2;Temp;Humidity;BMP_temperature;BMP_pressure;BME280_temperature;BME280_humidity;BME280_pressure;Samples;Min_cycle;Max_cycle;Signal;HPM_P1;HPM_P2
2022/06/01 00:00:51;;;;;;;3.63;3.30;;;;;;;;;;6222471;23;20378;-55
2022/06/01 00:03:17;;;;;;;3.87;2.90;;;;;;;;;;6235811;23;20470;-55
2022/06/01 00:05:55;;;;;;;3.90;3.37;;;;;;;;;;6232427;23;20386;-55
2022/06/01 00:08:22;;;;;;;3.90;3.50;;;;;;;;;;6232378;23;20705;-56
2022/06/01 00:10:48;;;;;;;3.33;2.97;;;;;;;;;;6228834;23;20444;-56
2022/06/01 00:13:16;;;;;;;5.40;3.60;;;;;;;;;;6239204;23;20456;-56
2022/06/01 00:15:43;;;;;;;4.63;4.23;;;;;;;;;;6227149;23;20471;-54
2022/06/01 00:18:09;;;;;;;4.57;3.37;;;;;;;;;;6235973;23;20710;-55
2022/06/01 00:20:41;;;;;;;3.73;3.40;;;;;;;;;;6231904;23;20490;-55
2022/06/01 00:23:08;;;;;;;3.23;2.93;;;;;;;;;;6234917;23;20374;-56
2022/06/01 00:25:33;;;;;;;3.90;3.50;;;;;;;;;;6233396;23;20461;-56
2022/06/01 00:28:00;;;;;;;4.87;4.00;;;;;;;;;;6240612;23;20370;-56
2022/06/01 00:30:26;;;;;;;3.90;3.53;;;;;;;;;;6233268;23;20440;-56
2022/06/01 00:33:14;;;;;;;3.70;3.40;;;;;;;;;;6240972;22;20370;-56
2022/06/01 00:35:43;;;;;;;3.80;3.50;;;;;;;;;;6233569;22;20576;-55
2022/06/01 00:38:12;;;;;;;4.73;3.60;;;;;;;;;;6239821;23;20390;-55
2022/06/01 00:40:39;;;;;;;4.13;3.37;;;;;;;;;;6231549;23;20742;-56
2022/06/01 00:43:25;;;;;;;4.00;3.60;;;;;;;;;;6212210;23;20374;-55
2022/06/01 00:45:51;;;;;;;4.07;3.67;;;;;;;;;;6233137;23;20370;-55
2022/06/01 00:48:18;;;;;;;3.60;3.30;;;;;;;;;;6239339;23;20389;-56
2022/06/01 00:50:47;;;;;;;5.27;4.10;;;;;;;;;;6234682;23;20381;-55
2022/06/01 00:53:24;;;;;;;5.43;4.53;;;;;;;;;;6240052;23;20437;-55
2022/06/01 00:56:08;;;;;;;3.60;2.90;;;;;;;;;;6217185;23;20506;-56
2022/06/01 00:58:47;;;;;;;5.77;3.43;;;;;;;;;;6238392;23;20410;-55
2022/06/01 01:01:18;;;;;;;3.73;3.37;;;;;;;;;;6232753;22;20378;-54
2022/06/01 01:03:46;;;;;;;3.40;3.10;;;;;;;;;;6231746;22;20435;-56
2022/06/01 01:06:19;;;;;;;4.20;3.80;;;;;;;;;;6220860;23;20469;-53
2022/06/01 01:11:51;;;;;;;7.63;3.77;;;;;;;;;;6238538;23;20380;-56
2022/06/01 01:14:20;;;;;;;4.10;3.70;;;;;;;;;;6222956;23;20464;-54
2022/06/01 01:16:49;;;;;;;3.10;2.80;;;;;;;;;;6236570;22;20429;-55
2022/06/01 01:19:23;;;;;;;3.80;2.80;;;;;;;;;;6201311;23;20451;-54
2022/06/01 01:22:18;;;;;;;4.40;3.60;;;;;;;;;;6240944;22;20396;-54
2022/06/01 01:25:06;;;;;;;3.53;3.23;;;;;;;;;;6231766;23;20450;-54
2022/06/01 01:27:47;;;;;;;3.73;3.13;;;;;;;;;;6236347;23;20370;-55
2022/06/01 01:30:44;;;;;;;3.60;2.60;;;;;;;;;;6236639;22;20393;-56
2022/06/01 01:33:15;;;;;;;3.23;2.87;;;;;;;;;;6214705;23;20721;-55
2022/06/01 01:35:42;;;;;;;3.50;2.80;;;;;;;;;;6244315;23;20430;-55
2022/06/01 01:38:19;;;;;;;8.63;3.30;;;;;;;;;;6232209;23;20377;-56
2022/06/01 01:40:56;;;;;;;3.70;2.80;;;;;;;;;;6242659;23;20844;-57
2022/06/01 01:46:28;;;;;;;2.97;2.67;;;;;;;;;;6239516;23;20373;-56
2022/06/01 01:48:54;;;;;;;3.40;2.97;;;;;;;;;;6237236;23;20378;-56
2022/06/01 01:51:24;;;;;;;5.30;3.23;;;;;;;;;;6238561;23;20369;-56
2022/06/01 01:53:52;;;;;;;7.77;7.07;;;;;;;;;;6219722;23;20163;-54
2022/06/01 01:56:25;;;;;;;3.70;3.20;;;;;;;;;;6244369;22;20459;-55
2022/06/01 01:59:09;;;;;;;3.80;3.50;;;;;;;;;;6237870;23;20769;-53
2022/06/01 02:01:40;;;;;;;3.80;3.40;;;;;;;;;;6238970;23;20377;-53
2022/06/01 02:06:03;;;;;;;4.17;2.97;;;;;;;;;;6227812;23;20381;-55
2022/06/01 02:06:57;;;;;;;3.17;2.87;;;;;;;;;;6240219;23;20429;-57
2022/06/01 02:12:40;;;;;;;3.33;3.03;;;;;;;;;;6236274;22;20374;-60
2022/06/01 02:14:58;;;;;;;4.10;3.63;;;;;;;;;;6233107;23;20465;-55
2022/06/01 02:17:24;;;;;;;3.60;3.13;;;;;;;;;;6240281;23;20457;-55
2022/06/01 02:20:10;;;;;;;8.20;3.23;;;;;;;;;;6240181;23;20447;-56
2022/06/01 02:25:41;;;;;;;3.90;3.50;;;;;;;;;;6232339;23;20410;-56
2022/06/01 02:28:16;;;;;;;4.07;3.00;;;;;;;;;;6234864;23;20505;-54
2022/06/01 02:30:45;;;;;;;5.13;3.30;;;;;;;;;;6241396;23;20370;-54
2022/06/01 02:33:28;;;;;;;4.03;2.80;;;;;;;;;;6234899;23;20382;-54
2022/06/01 02:35:54;;;;;;;4.37;3.97;;;;;;;;;;6239062;23;20970;-55
2022/06/01 02:38:21;;;;;;;3.33;3.03;;;;;;;;;;6224783;23;20371;-54
2022/06/01 02:40:57;;;;;;;5.20;3.80;;;;;;;;;;6237906;23;20846;-57
2022/06/01 02:43:34;;;;;;;3.73;3.43;;;;;;;;;;6220649;23;20385;-55
2022/06/01 02:46:00;;;;;;;3.33;3.00;;;;;;;;;;6238283;23;20862;-54
2022/06/01 02:48:26;;;;;;;3.30;3.00;;;;;;;;;;6232077;23;20383;-56
2022/06/01 02:50:52;;;;;;;3.50;3.20;;;;;;;;;;6235358;23;20392;-55
2022/06/01 02:53:18;;;;;;;3.13;2.70;;;;;;;;;;6232189;23;20462;-55
2022/06/01 02:55:44;;;;;;;7.37;3.20;;;;;;;;;;6226283;23;20464;-55
2022/06/01 02:58:11;;;;;;;2.83;2.57;;;;;;;;;;6239032;23;20818;-55
2022/06/01 03:00:41;;;;;;;3.50;3.20;;;;;;;;;;6234522;22;20370;-55
2022/06/01 03:03:08;;;;;;;4.03;3.63;;;;;;;;;;6238094;23;20468;-56
2022/06/01 03:05:38;;;;;;;3.50;3.20;;;;;;;;;;6211093;23;20401;-56
2022/06/01 03:08:15;;;;;;;4.13;3.70;;;;;;;;;;6240344;23;20397;-56
2022/06/01 03:10:50;;;;;;;3.27;2.90;;;;;;;;;;6228358;22;20378;-55
2022/06/01 03:13:16;;;;;;;5.43;3.60;;;;;;;;;;6211494;23;20374;-56
2022/06/01 03:15:42;;;;;;;3.90;3.37;;;;;;;;;;6236540;23;20536;-55
2022/06/01 03:18:09;;;;;;;3.50;2.87;;;;;;;;;;6213805;23;20501;-54
2022/06/01 03:20:49;;;;;;;4.07;3.33;;;;;;;;;;6195951;23;20436;-57
2022/06/01 03:23:19;;;;;;;6.17;3.23;;;;;;;;;;6236841;22;20414;-54
2022/06/01 03:25:45;;;;;;;3.50;3.20;;;;;;;;;;6221817;23;20390;-56
2022/06/01 03:28:11;;;;;;;3.27;2.97;;;;;;;;;;6231227;23;21072;-57
2022/06/01 03:30:56;;;;;;;4.17;3.77;;;;;;;;;;6235687;23;20481;-57
2022/06/01 03:33:24;;;;;;;4.00;3.47;;;;;;;;;;6241201;22;20370;-56
2022/06/01 03:35:56;;;;;;;5.43;3.40;;;;;;;;;;6232424;23;20426;-55
2022/06/01 03:38:22;;;;;;;3.63;3.20;;;;;;;;;;6239347;23;20437;-54
2022/06/01 03:41:03;;;;;;;7.93;3.57;;;;;;;;;;6239933;23;20406;-56
2022/06/01 03:45:55;;;;;;;4.57;3.53;;;;;;;;;;6240939;22;20370;-55
2022/06/01 03:46:19;;;;;;;3.27;2.97;;;;;;;;;;6236187;23;20381;-55
2022/06/01 03:48:47;;;;;;;3.60;3.10;;;;;;;;;;6242043;23;20493;-55
2022/06/01 03:51:21;;;;;;;3.50;3.20;;;;;;;;;;6223039;23;20857;-56
2022/06/01 03:53:50;;;;;;;3.10;2.80;;;;;;;;;;6230171;23;20386;-57
2022/06/01 03:59:21;;;;;;;4.53;3.30;;;;;;;;;;6233527;23;20521;-53
2022/06/01 04:01:51;;;;;;;6.83;3.77;;;;;;;;;;6225592;23;20378;-57
2022/06/01 04:04:18;;;;;;;3.60;3.30;;;;;;;;;;6236726;23;20385;-55
2022/06/01 04:06:45;;;;;;;4.07;2.80;;;;;;;;;;6228078;23;20478;-56
2022/06/01 04:09:11;;;;;;;4.93;3.80;;;;;;;;;;6233539;23;20375;-55
2022/06/01 04:12:06;;;;;;;4.87;3.33;;;;;;;;;;6232066;23;20412;-55
2022/06/01 04:14:39;;;;;;;4.90;3.87;;;;;;;;;;6237749;23;20461;-55
2022/06/01 04:17:05;;;;;;;4.30;3.60;;;;;;;;;;6223971;23;21131;-55
2022/06/01 04:19:30;;;;;;;4.77;3.27;;;;;;;;;;6237558;23;20477;-55
2022/06/01 04:22:08;;;;;;;3.27;2.97;;;;;;;;;;6230328;23;20416;-56
2022/06/01 04:28:06;;;;;;;4.73;3.47;;;;;;;;;;6212672;23;20392;-55
2022/06/01 04:30:32;;;;;;;4.10;3.30;;;;;;;;;;6229654;23;20478;-55
2022/06/01 04:32:58;;;;;;;3.83;3.47;;;;;;;;;;6210738;23;20402;-54
2022/06/01 04:35:24;;;;;;;5.23;3.00;;;;;;;;;;6231698;23;20425;-54
2022/06/01 04:37:51;;;;;;;3.67;3.37;;;;;;;;;;6214876;23;20485;-55
2022/06/01 04:40:18;;;;;;;3.63;3.33;;;;;;;;;;6228905;23;20382;-56
2022/06/01 04:42:45;;;;;;;3.77;3.17;;;;;;;;;;6224908;23;20498;-56
2022/06/01 04:45:19;;;;;;;3.40;2.70;;;;;;;;;;6227142;23;20926;-58
2022/06/01 04:48:20;;;;;;;5.50;3.00;;;;;;;;;;6235339;23;20720;-57
2022/06/01 04:50:46;;;;;;;9.17;4.17;;;;;;;;;;6216281;23;20395;-55
2022/06/01 04:53:13;;;;;;;4.50;3.30;;;;;;;;;;6231015;23;20902;-53
2022/06/01 04:55:59;;;;;;;5.33;3.73;;;;;;;;;;6220447;23;20533;-55
2022/06/01 04:59:02;;;;;;;5.00;3.17;;;;;;;;;;6235362;23;20416;-57
2022/06/01 05:01:31;;;;;;;3.03;2.57;;;;;;;;;;6228519;23;20370;-55
2022/06/01 05:03:57;;;;;;;4.20;3.10;;;;;;;;;;6229883;23;20465;-55
2022/06/01 05:06:24;;;;;;;3.10;2.80;;;;;;;;;;6231000;23;20370;-55
2022/06/01 05:08:50;;;;;;;4.50;3.30;;;;;;;;;;6212410;23;20738;-55
2022/06/01 05:11:17;;;;;;;5.33;3.60;;;;;;;;;;6230315;22;20734;-57
2022/06/01 05:14:02;;;;;;;3.53;2.87;;;;;;;;;;6224679;22;21381;-55
2022/06/01 05:16:31;;;;;;;5.03;2.30;;;;;;;;;;6237278;23;20433;-57
2022/06/01 05:18:58;;;;;;;3.87;2.90;;;;;;;;;;6217237;23;20647;-55
2022/06/01 05:21:24;;;;;;;7.23;3.00;;;;;;;;;;6237248;23;20386;-56
2022/06/01 05:23:50;;;;;;;4.07;2.70;;;;;;;;;;6227972;23;21243;-56
2022/06/01 05:26:16;;;;;;;3.37;3.07;;;;;;;;;;6237164;23;20469;-55
2022/06/01 05:28:43;;;;;;;3.40;2.83;;;;;;;;;;6212486;23;20409;-55
2022/06/01 05:31:10;;;;;;;5.40;3.03;;;;;;;;;;6223773;23;20148;-54
2022/06/01 05:33:37;;;;;;;5.43;3.70;;;;;;;;;;6229714;23;20947;-55
2022/06/01 05:36:04;;;;;;;4.83;3.20;;;;;;;;;;6229135;23;20456;-55
2022/06/01 05:38:51;;;;;;;4.70;2.80;;;;;;;;;;6219172;23;20417;-55
2022/06/01 05:41:26;;;;;;;2.80;2.40;;;;;;;;;;6232451;22;20378;-55
2022/06/01 05:43:53;;;;;;;5.03;3.43;;;;;;;;;;6231709;22;20374;-55
2022/06/01 05:46:23;;;;;;;5.10;2.57;;;;;;;;;;6234983;22;20378;-56
2022/06/01 05:48:58;;;;;;;5.33;2.60;;;;;;;;;;6217119;23;20619;-55
2022/06/01 05:51:24;;;;;;;3.13;2.83;;;;;;;;;;6238486;23;20440;-54
2022/06/01 05:53:51;;;;;;;2.97;2.47;;;;;;;;;;6232371;22;20362;-54
2022/06/01 05:56:18;;;;;;;3.93;2.50;;;;;;;;;;6226005;23;20915;-53
2022/06/01 05:58:48;;;;;;;5.07;3.13;;;;;;;;;;6219464;23;20575;-54
2022/06/01 06:01:17;;;;;;;3.73;3.20;;;;;;;;;;6233645;22;20475;-55
2022/06/01 06:03:43;;;;;;;8.37;2.80;;;;;;;;;;6215463;22;20393;-55
2022/06/01 06:06:12;;;;;;;4.30;2.80;;;;;;;;;;6239521;23;20378;-55
2022/06/01 06:08:39;;;;;;;5.27;3.20;;;;;;;;;;6223710;23;20401;-55
2022/06/01 06:11:06;;;;;;;5.77;3.20;;;;;;;;;;6213916;23;20723;-55
2022/06/01 06:13:34;;;;;;;3.07;2.67;;;;;;;;;;6215863;23;20396;-55
2022/06/01 06:16:00;;;;;;;5.77;3.40;;;;;;;;;;6236730;23;20430;-56
2022/06/01 06:18:26;;;;;;;3.37;3.00;;;;;;;;;;6220337;23;20833;-57
2022/06/01 06:20:52;;;;;;;3.70;2.70;;;;;;;;;;6239256;23;20469;-54
2022/06/01 06:23:18;;;;;;;4.53;3.07;;;;;;;;;;6227568;23;20175;-55
2022/06/01 06:25:44;;;;;;;5.17;3.07;;;;;;;;;;6238892;23;20494;-55
2022/06/01 06:28:10;;;;;;;3.77;2.73;;;;;;;;;;6223915;23;20155;-53
2022/06/01 06:30:38;;;;;;;5.97;3.40;;;;;;;;;;6239656;23;20571;-54
2022/06/01 06:33:04;;;;;;;2.83;2.57;;;;;;;;;;6233541;22;20460;-55
2022/06/01 06:35:30;;;;;;;4.77;2.70;;;;;;;;;;6209975;23;20375;-54
2022/06/01 06:37:56;;;;;;;3.40;2.60;;;;;;;;;;6239680;23;20389;-53
2022/06/01 06:40:23;;;;;;;3.70;2.73;;;;;;;;;;6219535;23;20374;-54
2022/06/01 06:42:48;;;;;;;5.40;2.97;;;;;;;;;;6242172;23;20389;-55
2022/06/01 06:45:15;;;;;;;5.13;2.53;;;;;;;;;;6222880;23;20726;-56
2022/06/01 06:47:42;;;;;;;4.40;2.97;;;;;;;;;;6235013;23;20174;-56
2022/06/01 06:50:09;;;;;;;3.33;2.73;;;;;;;;;;6233240;22;20366;-56
2022/06/01 06:52:35;;;;;;;5.33;3.23;;;;;;;;;;6209042;23;20375;-54
2022/06/01 06:58:09;;;;;;;4.80;2.97;;;;;;;;;;6190516;23;21248;-54
2022/06/01 07:00:36;;;;;;;3.50;2.53;;;;;;;;;;6230345;22;20374;-56
2022/06/01 07:03:02;;;;;;;4.43;2.70;;;;;;;;;;6229274;23;20473;-55
2022/06/01 07:08:12;;;;;;;2.53;2.33;;;;;;;;;;6216981;23;20377;-56
2022/06/01 07:10:38;;;;;;;6.37;3.30;;;;;;;;;;6238992;23;20438;-55
2022/06/01 07:13:04;;;;;;;6.20;2.90;;;;;;;;;;6219212;23;20382;-55
2022/06/01 07:15:30;;;;;;;5.40;2.30;;;;;;;;;;6239640;23;20217;-56
2022/06/01 07:17:56;;;;;;;3.40;2.70;;;;;;;;;;6218181;23;20382;-54
2022/06/01 07:20:22;;;;;;;5.37;2.40;;;;;;;;;;6239723;23;20450;-57
2022/06/01 07:22:48;;;;;;;2.23;1.93;;;;;;;;;;6235788;23;21112;-55
2022/06/01 07:25:17;;;;;;;3.47;2.37;;;;;;;;;;6238307;23;20370;-55
2022/06/01 07:27:43;;;;;;;3.70;2.40;;;;;;;;;;6219023;23;20393;-55
2022/06/01 07:30:10;;;;;;;7.20;3.47;;;;;;;;;;6239216;23;21292;-55
2022/06/01 07:32:36;;;;;;;5.60;2.90;;;;;;;;;;6218755;22;20378;-55
2022/06/01 07:35:06;;;;;;;9.10;2.77;;;;;;;;;;6241563;23;20408;-54
2022/06/01 07:43:07;;;;;;;4.10;2.33;;;;;;;;;;6233547;23;20796;-55
2022/06/01 07:45:34;;;;;;;3.43;2.20;;;;;;;;;;6241226;23;20370;-55
2022/06/01 07:48:01;;;;;;;3.90;2.50;;;;;;;;;;6235487;22;20424;-56
2022/06/01 07:50:27;;;;;;;6.67;3.33;;;;;;;;;;6240419;23;20424;-56
2022/06/01 07:52:53;;;;;;;3.63;2.37;;;;;;;;;;6218751;23;20897;-56
2022/06/01 07:55:20;;;;;;;2.80;2.60;;;;;;;;;;6242279;23;20397;-55
2022/06/01 07:57:46;;;;;;;5.40;2.40;;;;;;;;;;6226030;23;20432;-55
2022/06/01 08:00:12;;;;;;;2.73;2.47;;;;;;;;;;6243094;23;20389;-55
2022/06/01 08:02:38;;;;;;;3.40;2.53;;;;;;;;;;6236207;22;20143;-54
2022/06/01 08:05:05;;;;;;;2.40;2.10;;;;;;;;;;6220376;23;20486;-56
2022/06/01 08:07:33;;;;;;;3.00;1.90;;;;;;;;;;6240471;22;20456;-54
2022/06/01 08:09:59;;;;;;;8.63;2.50;;;;;;;;;;6218663;22;20370;-54
2022/06/01 08:15:11;;;;;;;2.10;1.70;;;;;;;;;;6220465;23;20409;-55
2022/06/01 08:17:37;;;;;;;1.97;1.70;;;;;;;;;;6238166;23;20516;-55
2022/06/01 08:20:03;;;;;;;4.03;2.70;;;;;;;;;;6219179;23;20370;-55
2022/06/01 08:22:29;;;;;;;4.23;2.37;;;;;;;;;;6240611;23;20393;-55
2022/06/01 08:24:55;;;;;;;2.73;2.13;;;;;;;;;;6226024;23;20454;-55
2022/06/01 08:27:21;;;;;;;2.47;2.20;;;;;;;;;;6238298;23;20905;-55
2022/06/01 08:29:47;;;;;;;2.40;2.10;;;;;;;;;;6217846;23;20600;-55
2022/06/01 08:32:13;;;;;;;5.93;2.60;;;;;;;;;;6239240;23;20489;-55
2022/06/01 08:34:39;;;;;;;3.30;2.20;;;;;;;;;;6233436;22;20521;-55
2022/06/01 08:37:05;;;;;;;2.50;2.30;;;;;;;;;;6238860;23;20425;-56
2022/06/01 08:39:52;;;;;;;2.37;2.07;;;;;;;;;;6232404;23;20444;-54
2022/06/01 08:42:20;;;;;;;5.10;3.00;;;;;;;;;;6239620;22;20382;-55
2022/06/01 08:44:46;;;;;;;3.47;2.50;;;;;;;;;;6232303;23;20412;-54
2022/06/01 08:47:29;;;;;;;2.73;2.37;;;;;;;;;;6239550;23;20389;-55
2022/06/01 08:49:58;;;;;;;4.00;2.23;;;;;;;;;;6218666;23;20377;-55
2022/06/01 08:52:24;;;;;;;3.57;2.23;;;;;;;;;;6241961;23;20387;-55
2022/06/01 08:54:50;;;;;;;2.97;2.20;;;;;;;;;;6223722;23;20654;-54
2022/06/01 08:57:30;;;;;;;4.07;2.77;;;;;;;;;;6241782;23;20751;-55
2022/06/01 09:00:01;;;;;;;6.73;3.00;;;;;;;;;;6221048;23;20401;-56
2022/06/01 09:02:28;;;;;;;8.87;2.63;;;;;;;;;;6239958;23;20370;-55
2022/06/01 09:04:54;;;;;;;4.20;2.87;;;;;;;;;;6236158;22;20469;-58
2022/06/01 09:07:23;;;;;;;3.80;3.13;;;;;;;;;;6238845;23;20416;-57
2022/06/01 09:09:55;;;;;;;6.57;3.23;;;;;;;;;;6219087;23;20393;-56
2022/06/01 09:12:21;;;;;;;3.57;2.90;;;;;;;;;;6240988;23;20371;-57
2022/06/01 09:14:49;;;;;;;3.63;3.00;;;;;;;;;;6201430;23;20676;-56
2022/06/01 09:17:16;;;;;;;4.20;3.20;;;;;;;;;;6229296;22;20466;-57
2022/06/01 09:22:39;;;;;;;6.17;2.73;;;;;;;;;;6241269;23;20903;-56
2022/06/01 09:25:06;;;;;;;5.13;2.20;;;;;;;;;;6223911;23;20393;-56
2022/06/01 09:27:49;;;;;;;3.03;2.47;;;;;;;;;;6241039;22;20420;-55
2022/06/01 09:30:35;;;;;;;3.27;2.43;;;;;;;;;;6216571;23;20392;-56
2022/06/01 09:33:14;;;;;;;3.37;2.23;;;;;;;;;;6240256;23;20474;-58
2022/06/01 09:35:56;;;;;;;2.30;2.10;;;;;;;;;;6220950;22;20370;-55
2022/06/01 09:38:36;;;;;;;4.60;2.30;;;;;;;;;;6238257;23;20391;-56
2022/06/01 09:41:24;;;;;;;3.93;2.70;;;;;;;;;;6217745;22;20374;-56
2022/06/01 09:44:40;;;;;;;3.50;2.40;;;;;;;;;;6240833;23;20390;-56
2022/06/01 09:47:21;;;;;;;5.47;2.60;;;;;;;;;;6227774;23;20421;-56
2022/06/01 09:49:48;;;;;;;3.17;2.43;;;;;;;;;;6234462;23;20806;-56
2022/06/01 09:52:22;;;;;;;2.30;1.87;;;;;;;;;;6237345;23;20405;-55
2022/06/01 09:54:52;;;;;;;2.97;2.53;;;;;;;;;;6235484;22;20436;-56
2022/06/01 09:57:18;;;;;;;5.47;2.60;;;;;;;;;;6240560;22;20434;-56
2022/06/01 10:08:29;;;;;;;2.83;1.53;;;;;;;;;;6212592;23;20976;-57
2022/06/01 10:10:59;;;;;;;2.30;1.50;;;;;;;;;;6232520;23;20397;-55
2022/06/01 10:13:49;;;;;;;2.03;1.47;;;;;;;;;;6231198;23;20371;-58
2022/06/01 10:16:35;;;;;;;3.20;1.70;;;;;;;;;;6252393;22;20484;-57
2022/06/01 10:19:01;;;;;;;2.30;1.90;;;;;;;;;;6239023;22;20439;-57
2022/06/01 10:21:39;;;;;;;4.30;1.40;;;;;;;;;;6222648;23;20378;-56
2022/06/01 10:24:07;;;;;;;1.97;1.30;;;;;;;;;;6217066;23;20382;-56
2022/06/01 10:26:38;;;;;;;2.63;1.77;;;;;;;;;;6237102;23;20636;-57
2022/06/01 10:29:05;;;;;;;2.87;1.53;;;;;;;;;;6233576;23;20378;-55
2022/06/01 10:31:39;;;;;;;2.33;1.20;;;;;;;;;;6235801;23;20860;-55
2022/06/01 10:34:06;;;;;;;1.80;1.30;;;;;;;;;;6200993;23;20857;-56
2022/06/01 10:36:38;;;;;;;5.23;1.70;;;;;;;;;;6239065;22;20508;-56
2022/06/01 10:39:08;;;;;;;3.10;2.37;;;;;;;;;;6218067;22;20873;-56
2022/06/01 10:41:39;;;;;;;2.80;1.47;;;;;;;;;;6237317;23;20369;-56
2022/06/01 10:44:13;;;;;;;5.83;1.70;;;;;;;;;;6219511;23;20460;-56
2022/06/01 10:46:41;;;;;;;4.33;2.30;;;;;;;;;;6237980;23;20365;-54
2022/06/01 10:49:08;;;;;;;3.37;1.60;;;;;;;;;;6220383;23;20377;-54
2022/06/01 10:51:34;;;;;;;3.00;1.30;;;;;;;;;;6239792;23;20377;-55
2022/06/01 10:54:04;;;;;;;3.17;1.60;;;;;;;;;;6215860;23;20453;-58
2022/06/01 10:56:30;;;;;;;2.30;1.30;;;;;;;;;;6237190;22;20485;-55
2022/06/01 10:58:59;;;;;;;5.93;1.53;;;;;;;;;;6229288;23;20714;-56
2022/06/01 11:01:44;;;;;;;3.30;1.40;;;;;;;;;;6233747;23;20417;-55
2022/06/01 11:04:21;;;;;;;2.23;1.50;;;;;;;;;;6235092;23;20817;-55
2022/06/01 11:07:00;;;;;;;4.03;1.50;;;;;;;;;;6237163;23;20381;-55
2022/06/01 11:09:26;;;;;;;2.00;1.30;;;;;;;;;;6225749;22;20393;-55
2022/06/01 11:12:28;;;;;;;2.60;1.53;;;;;;;;;;6237982;23;20374;-54
2022/06/01 11:15:10;;;;;;;2.30;1.50;;;;;;;;;;6140475;23;20860;-55
2022/06/01 11:18:12;;;;;;;1.83;1.47;;;;;;;;;;6221110;23;20486;-56
2022/06/01 11:20:48;;;;;;;2.43;1.63;;;;;;;;;;6225504;23;20605;-56
2022/06/01 11:23:23;;;;;;;3.37;1.70;;;;;;;;;;6239652;23;20384;-56
2022/06/01 11:25:59;;;;;;;3.03;1.80;;;;;;;;;;6228737;22;20472;-55
2022/06/01 11:28:28;;;;;;;2.43;1.57;;;;;;;;;;6208790;23;20539;-55
2022/06/01 11:30:54;;;;;;;2.40;1.70;;;;;;;;;;6220969;23;20370;-56
2022/06/01 11:33:20;;;;;;;3.23;1.97;;;;;;;;;;6239929;23;20366;-56
2022/06/01 11:35:48;;;;;;;2.87;1.77;;;;;;;;;;6234773;23;20147;-55
2022/06/01 11:38:25;;;;;;;3.50;1.70;;;;;;;;;;6240800;23;20230;-56
2022/06/01 11:40:52;;;;;;;1.83;1.43;;;;;;;;;;6224698;23;20440;-57
2022/06/01 11:43:27;;;;;;;1.90;1.47;;;;;;;;;;6241835;23;20849;-56
2022/06/01 11:45:54;;;;;;;3.83;1.47;;;;;;;;;;6233711;22;20435;-56
2022/06/01 11:48:23;;;;;;;2.20;1.47;;;;;;;;;;6240804;23;20684;-56
2022/06/01 11:50:56;;;;;;;2.77;1.63;;;;;;;;;;6221433;22;20389;-56
2022/06/01 11:53:26;;;;;;;2.20;1.80;;;;;;;;;;6240179;22;20374;-56
2022/06/01 11:55:52;;;;;;;3.23;1.90;;;;;;;;;;6234637;23;20775;-56
2022/06/01 11:58:18;;;;;;;2.33;1.60;;;;;;;;;;6236236;23;20397;-56
2022/06/01 12:00:44;;;;;;;2.17;1.50;;;;;;;;;;6221417;23;20189;-56
2022/06/01 12:03:16;;;;;;;2.90;1.83;;;;;;;;;;6237420;23;20147;-55
2022/06/01 12:05:57;;;;;;;2.40;1.70;;;;;;;;;;6231644;23;20571;-56
2022/06/01 12:08:39;;;;;;;3.03;1.67;;;;;;;;;;6235116;23;20825;-55
2022/06/01 12:11:35;;;;;;;4.17;2.10;;;;;;;;;;6227190;23;20378;-55
2022/06/01 12:14:06;;;;;;;2.10;1.63;;;;;;;;;;6236730;22;20424;-56
2022/06/01 12:16:32;;;;;;;2.20;1.57;;;;;;;;;;6235145;23;20435;-56
2022/06/01 12:18:59;;;;;;;2.93;1.83;;;;;;;;;;6231690;23;20847;-56
2022/06/01 12:21:25;;;;;;;2.00;1.67;;;;;;;;;;6238033;23;20458;-57
2022/06/01 12:29:35;;;;;;;10.30;1.93;;;;;;;;;;6223805;23;21047;-55
2022/06/01 12:32:22;;;;;;;3.90;1.63;;;;;;;;;;6238517;23;20442;-56
2022/06/01 12:35:08;;;;;;;2.30;1.70;;;;;;;;;;6233159;22;20370;-56
2022/06/01 12:37:45;;;;;;;4.40;1.67;;;;;;;;;;6231463;23;20815;-57
2022/06/01 12:40:13;;;;;;;3.37;2.00;;;;;;;;;;6238697;23;20515;-54
2022/06/01 12:42:46;;;;;;;2.40;1.97;;;;;;;;;;6198161;23;20726;-54
2022/06/01 12:45:15;;;;;;;4.63;2.17;;;;;;;;;;6238399;23;20371;-55
2022/06/01 12:47:56;;;;;;;2.83;2.40;;;;;;;;;;6230641;23;20473;-55
2022/06/01 12:50:22;;;;;;;4.27;1.53;;;;;;;;;;6240359;23;20469;-56
2022/06/01 12:52:48;;;;;;;2.23;1.53;;;;;;;;;;6215683;23;20425;-56
2022/06/01 12:55:18;;;;;;;2.93;2.20;;;;;;;;;;6238053;23;20382;-55
2022/06/01 12:57:55;;;;;;;2.90;1.70;;;;;;;;;;6224701;23;20478;-56
2022/06/01 13:00:23;;;;;;;3.27;1.80;;;;;;;;;;6233489;23;20374;-58
2022/06/01 13:02:49;;;;;;;2.70;2.40;;;;;;;;;;6235034;23;20376;-56
2022/06/01 13:05:22;;;;;;;2.40;1.97;;;;;;;;;;6220443;23;20445;-56
2022/06/01 13:07:50;;;;;;;4.10;2.33;;;;;;;;;;6238585;23;20719;-56
2022/06/01 13:10:20;;;;;;;2.00;1.67;;;;;;;;;;6230624;23;20811;-56
2022/06/01 13:12:46;;;;;;;2.70;2.00;;;;;;;;;;6216104;23;20378;-57
2022/06/01 13:15:17;;;;;;;2.80;1.90;;;;;;;;;;6238180;23;20374;-57
2022/06/01 13:17:56;;;;;;;3.03;2.40;;;;;;;;;;6218245;23;20436;-56
2022/06/01 13:20:55;;;;;;;2.90;1.80;;;;;;;;;;6236785;22;20419;-56
2022/06/01 13:23:31;;;;;;;3.30;2.03;;;;;;;;;;6231873;23;20976;-58
2022/06/01 13:25:59;;;;;;;2.40;1.93;;;;;;;;;;6223461;23;20365;-54
2022/06/01 13:31:28;;;;;;;2.80;1.97;;;;;;;;;;6218079;23;20520;-53
2022/06/01 13:33:54;;;;;;;3.13;2.40;;;;;;;;;;6239131;23;20366;-53
2022/06/01 13:36:28;;;;;;;3.03;2.30;;;;;;;;;;6224504;23;20507;-55
2022/06/01 13:39:00;;;;;;;2.37;2.07;;;;;;;;;;6240445;23;20182;-55
2022/06/01 13:41:33;;;;;;;2.80;2.60;;;;;;;;;;6225717;23;20599;-53
2022/06/01 13:44:02;;;;;;;3.20;1.90;;;;;;;;;;6238547;23;20825;-53
2022/06/01 13:46:32;;;;;;;3.70;2.20;;;;;;;;;;6235278;22;20370;-58
2022/06/01 13:49:08;;;;;;;3.10;2.00;;;;;;;;;;6239605;23;20378;-56
2022/06/01 13:51:35;;;;;;;5.63;2.27;;;;;;;;;;6219324;23;20374;-56
2022/06/01 13:54:01;;;;;;;2.30;1.80;;;;;;;;;;6240826;23;20370;-57
2022/06/01 13:56:31;;;;;;;2.10;1.60;;;;;;;;;;6225354;23;20458;-56
2022/06/01 13:59:11;;;;;;;3.53;1.97;;;;;;;;;;6238289;22;20371;-56
2022/06/01 14:01:44;;;;;;;5.50;2.20;;;;;;;;;;6209407;22;20826;-56
2022/06/01 14:04:26;;;;;;;2.40;1.90;;;;;;;;;;6240282;23;20402;-55
2022/06/01 14:06:56;;;;;;;5.30;2.10;;;;;;;;;;6224489;22;20855;-56
2022/06/01 14:09:28;;;;;;;2.60;2.20;;;;;;;;;;6234207;23;20686;-59
2022/06/01 14:11:55;;;;;;;1.93;1.73;;;;;;;;;;6241190;23;20875;-56
2022/06/01 14:14:40;;;;;;;5.43;3.47;;;;;;;;;;6216262;23;20760;-56
2022/06/01 14:17:09;;;;;;;6.10;2.03;;;;;;;;;;6240288;23;20426;-57
2022/06/01 14:19:35;;;;;;;3.07;2.40;;;;;;;;;;6235173;23;20438;-56
2022/06/01 14:22:04;;;;;;;2.40;2.00;;;;;;;;;;6239324;23;20397;-57
2022/06/01 14:28:28;;;;;;;3.30;2.30;;;;;;;;;;6219025;23;20378;-55
2022/06/01 14:30:02;;;;;;;3.40;1.90;;;;;;;;;;6228750;23;20382;-58
2022/06/01 14:32:30;;;;;;;11.60;4.80;;;;;;;;;;6192980;23;20945;-55
2022/06/01 14:34:56;;;;;;;3.40;2.20;;;;;;;;;;6237078;23;20370;-57
2022/06/01 14:37:22;;;;;;;3.60;2.20;;;;;;;;;;6218398;23;20426;-56
2022/06/01 14:39:48;;;;;;;2.70;2.20;;;;;;;;;;6241044;23;20970;-56
2022/06/01 14:42:14;;;;;;;2.30;2.00;;;;;;;;;;6225536;23;20363;-57
2022/06/01 14:44:40;;;;;;;2.93;2.33;;;;;;;;;;6239832;23;20214;-56
2022/06/01 14:47:06;;;;;;;4.60;2.50;;;;;;;;;;6237010;23;20155;-54
2022/06/01 14:49:32;;;;;;;2.87;2.20;;;;;;;;;;6235513;23;20143;-56
2022/06/01 14:51:59;;;;;;;2.83;2.03;;;;;;;;;;6236339;23;20378;-56
2022/06/01 14:54:26;;;;;;;3.07;2.30;;;;;;;;;;6239905;22;20378;-55
2022/06/01 14:57:10;;;;;;;3.00;2.57;;;;;;;;;;6228667;23;20527;-56
2022/06/01 14:59:40;;;;;;;3.03;2.57;;;;;;;;;;6238396;23;20950;-56
2022/06/01 15:02:16;;;;;;;3.00;2.13;;;;;;;;;;6219404;23;21207;-59
2022/06/01 15:04:55;;;;;;;3.00;2.70;;;;;;;;;;6241964;22;20385;-55
2022/06/01 15:07:27;;;;;;;4.90;2.73;;;;;;;;;;6218400;23;20436;-57
2022/06/01 15:09:53;;;;;;;3.77;2.30;;;;;;;;;;6238500;23;20382;-55
2022/06/01 15:12:19;;;;;;;3.40;2.20;;;;;;;;;;6188889;23;20474;-55
2022/06/01 15:14:48;;;;;;;4.03;2.27;;;;;;;;;;6239936;23;20929;-56
2022/06/01 15:17:24;;;;;;;2.90;2.33;;;;;;;;;;6216756;23;20222;-56
2022/06/01 15:19:51;;;;;;;2.43;2.13;;;;;;;;;;6234436;23;20484;-55
2022/06/01 15:22:17;;;;;;;2.90;2.20;;;;;;;;;;6237074;22;20405;-55
2022/06/01 15:24:43;;;;;;;2.70;2.10;;;;;;;;;;6234953;23;20382;-55
2022/06/01 15:27:13;;;;;;;3.23;2.20;;;;;;;;;;6236013;23;20378;-56
2022/06/01 15:40:56;;;;;;;3.60;2.03;;;;;;;;;;6202947;23;20582;-56
2022/06/01 15:43:25;;;;;;;5.97;2.30;;;;;;;;;;6228690;22;20382;-55
2022/06/01 15:46:05;;;;;;;2.67;2.10;;;;;;;;;;6225232;23;20810;-54
2022/06/01 15:48:35;;;;;;;3.30;2.23;;;;;;;;;;6238336;22;20389;-54
2022/06/01 15:51:08;;;;;;;2.60;2.10;;;;;;;;;;6196485;23;20367;-54
2022/06/01 15:53:36;;;;;;;4.03;2.00;;;;;;;;;;6234788;23;20840;-54
2022/06/01 15:56:02;;;;;;;4.20;2.37;;;;;;;;;;6232309;22;20433;-55
2022/06/01 15:58:28;;;;;;;3.60;2.40;;;;;;;;;;6240150;23;20400;-55
2022/06/01 16:01:29;;;;;;;3.17;2.30;;;;;;;;;;6232147;23;20401;-56
2022/06/01 16:03:55;;;;;;;4.57;1.77;;;;;;;;;;6262760;22;20283;-55
2022/06/01 16:06:21;;;;;;;2.60;2.27;;;;;;;;;;6221279;23;20382;-56
2022/06/01 16:08:47;;;;;;;2.80;2.33;;;;;;;;;;6238067;23;20374;-56
2022/06/01 16:11:15;;;;;;;2.73;2.13;;;;;;;;;;6228260;22;20383;-55
2022/06/01 16:13:42;;;;;;;4.03;2.13;;;;;;;;;;6234888;22;20367;-55